createdAt,value
2023-05-08T00:00:06.292Z,93.68
2023-05-08T00:00:18.314Z,93.74
2023-05-08T00:00:30.413Z,93.51
2023-05-08T00:00:42.320Z,93.64
2023-05-08T00:00:58.759Z,93.47
2023-05-08T00:01:11.468Z,93.60
2023-05-08T00:01:23.363Z,93.85
2023-05-08T00:01:35.292Z,93.97
2023-05-08T00:01:47.260Z,94.05
2023-05-08T00:01:59.153Z,93.82
2023-05-08T00:02:11.071Z,93.79
2023-05-08T00:02:23.138Z,93.82
2023-05-08T00:02:35.346Z,93.68
2023-05-08T00:02:47.611Z,93.62
2023-05-08T00:02:59.715Z,93.54
2023-05-08T00:03:11.782Z,93.46
2023-05-08T00:03:24.102Z,93.34
2023-05-08T00:03:36.247Z,93.52
2023-05-08T00:03:49.090Z,93.20
2023-05-08T00:04:01.321Z,93.55
2023-05-08T00:04:16.478Z,93.83
2023-05-08T00:04:28.487Z,93.72
2023-05-08T00:04:40.489Z,93.74
2023-05-08T00:04:53.487Z,93.64
2023-05-08T00:05:07.127Z,93.56
2023-05-08T00:05:19.465Z,93.90
2023-05-08T00:05:31.384Z,93.87
2023-05-08T00:05:43.328Z,93.84
2023-05-08T00:05:57.956Z,93.69
2023-05-08T00:06:09.853Z,93.69
2023-05-08T00:06:21.772Z,93.68
2023-05-08T00:06:33.655Z,93.48
2023-05-08T00:06:45.831Z,93.26
2023-05-08T00:06:57.745Z,93.13
2023-05-08T00:07:09.749Z,93.14
2023-05-08T00:07:21.652Z,92.87
2023-05-08T00:07:33.600Z,93.05
2023-05-08T00:07:45.841Z,93.08
2023-05-08T00:08:01.516Z,93.58
2023-05-08T00:08:13.544Z,93.39
2023-05-08T00:08:25.454Z,93.37
2023-05-08T00:08:37.412Z,92.97
2023-05-08T00:08:49.359Z,93.34
2023-05-08T00:09:01.375Z,93.36
2023-05-08T00:09:13.413Z,93.29
2023-05-08T00:09:25.368Z,93.59
2023-05-08T00:09:37.821Z,93.14
2023-05-08T00:09:49.753Z,93.64
2023-05-08T00:10:01.753Z,93.71
2023-05-08T00:10:13.775Z,93.83
2023-05-08T00:10:25.924Z,93.55
2023-05-08T00:10:37.803Z,93.60
2023-05-08T00:10:49.799Z,93.60
2023-05-08T00:11:01.803Z,93.63
2023-05-08T00:11:13.906Z,93.74
2023-05-08T00:11:25.804Z,93.63
2023-05-08T00:11:37.673Z,93.22
2023-05-08T00:11:49.602Z,93.30
2023-05-08T00:12:01.617Z,93.52
2023-05-08T00:12:13.669Z,93.29
2023-05-08T00:12:25.551Z,93.32
2023-05-08T00:12:37.575Z,93.42
2023-05-08T00:12:49.518Z,93.41
2023-05-08T00:13:01.950Z,93.38
2023-05-08T00:13:14.231Z,93.27
2023-05-08T00:13:29.022Z,93.15
2023-05-08T00:13:41.515Z,93.22
2023-05-08T00:13:53.450Z,93.07
2023-05-08T00:14:05.872Z,93.07
2023-05-08T00:14:17.976Z,93.34
2023-05-08T00:14:29.900Z,93.07
2023-05-08T00:14:41.833Z,93.16
2023-05-08T00:14:53.728Z,93.19
2023-05-08T00:15:06.251Z,92.86
2023-05-08T00:15:18.304Z,93.14
2023-05-08T00:15:30.254Z,93.26
2023-05-08T00:15:42.192Z,93.25
2023-05-08T00:15:54.178Z,93.35
2023-05-08T00:16:09.144Z,93.24
2023-05-08T00:16:21.552Z,93.36
2023-05-08T00:16:33.799Z,93.40
2023-05-08T00:16:46.098Z,93.38
2023-05-08T00:16:58.167Z,93.28
2023-05-08T00:17:13.524Z,93.24
2023-05-08T00:17:25.508Z,93.33
2023-05-08T00:17:37.582Z,93.32
2023-05-08T00:17:49.673Z,93.23
2023-05-08T00:18:01.676Z,93.16
2023-05-08T00:18:13.938Z,93.16
2023-05-08T00:18:26.510Z,93.10
2023-05-08T00:18:39.044Z,93.04
2023-05-08T00:18:53.570Z,92.94
2023-05-08T00:19:05.523Z,92.96
2023-05-08T00:19:17.645Z,93.08
2023-05-08T00:19:29.615Z,93.02
2023-05-08T00:19:43.054Z,93.06
2023-05-08T00:19:55.170Z,93.01
2023-05-08T00:20:08.643Z,92.83
2023-05-08T00:20:20.544Z,92.76
2023-05-08T00:20:34.284Z,92.85
2023-05-08T00:20:46.245Z,92.88
2023-05-08T00:20:58.148Z,92.82
2023-05-08T00:21:10.055Z,92.74
2023-05-08T00:21:21.939Z,92.92
2023-05-08T00:21:33.909Z,92.70
2023-05-08T00:21:45.821Z,92.55
2023-05-08T00:21:57.761Z,92.56
2023-05-08T00:22:09.764Z,92.55
2023-05-08T00:22:21.822Z,92.57
2023-05-08T00:22:35.808Z,92.41
2023-05-08T00:22:47.749Z,92.51
2023-05-08T00:22:59.779Z,92.53
2023-05-08T00:23:11.788Z,92.47
2023-05-08T00:23:23.770Z,92.57
2023-05-08T00:23:36.404Z,92.52
2023-05-08T00:23:48.365Z,92.50
2023-05-08T00:24:00.293Z,92.48
2023-05-08T00:24:12.450Z,92.52
2023-05-08T00:24:24.387Z,92.40
2023-05-08T00:24:36.316Z,92.41
2023-05-08T00:24:48.286Z,92.60
2023-05-08T00:25:00.294Z,92.64
2023-05-08T00:25:12.269Z,92.29
2023-05-08T00:25:24.275Z,92.56
2023-05-08T00:25:36.162Z,92.34
2023-05-08T00:25:48.972Z,92.39
2023-05-08T00:26:00.977Z,92.25
2023-05-08T00:26:13.043Z,92.35
2023-05-08T00:26:25.775Z,92.15
2023-05-08T00:26:37.957Z,92.05
2023-05-08T00:26:50.532Z,92.19
2023-05-08T00:27:02.719Z,92.47
2023-05-08T00:27:15.482Z,92.41
2023-05-08T00:27:27.476Z,92.29
2023-05-08T00:27:39.420Z,92.27
2023-05-08T00:27:51.354Z,92.14
2023-05-08T00:28:03.343Z,92.14
2023-05-08T00:28:17.846Z,92.12
2023-05-08T00:28:29.818Z,92.20
2023-05-08T00:28:41.714Z,92.14
2023-05-08T00:28:53.667Z,92.00
2023-05-08T00:29:06.758Z,92.22
2023-05-08T00:29:18.917Z,92.05
2023-05-08T00:29:30.931Z,91.98
2023-05-08T00:29:43.137Z,92.09
2023-05-08T00:29:55.074Z,91.97
2023-05-08T00:30:09.282Z,92.06
2023-05-08T00:30:21.391Z,92.05
2023-05-08T00:30:33.328Z,92.03
2023-05-08T00:30:45.279Z,91.94
2023-05-08T00:31:02.182Z,91.75
2023-05-08T00:31:15.504Z,91.76
2023-05-08T00:31:27.469Z,91.71
2023-05-08T00:31:39.446Z,91.63
2023-05-08T00:31:51.531Z,91.77
2023-05-08T00:32:03.575Z,91.80
2023-05-08T00:32:15.904Z,91.64
2023-05-08T00:32:27.969Z,91.58
2023-05-08T00:32:39.997Z,91.56
2023-05-08T00:32:52.137Z,91.72
2023-05-08T00:33:04.534Z,91.54
2023-05-08T00:33:16.581Z,91.49
2023-05-08T00:33:28.875Z,91.62
2023-05-08T00:33:41.257Z,91.16
2023-05-08T00:33:53.229Z,91.44
2023-05-08T00:34:05.706Z,91.25
2023-05-08T00:34:17.663Z,91.19
2023-05-08T00:34:29.621Z,90.97
2023-05-08T00:34:41.584Z,91.05
2023-05-08T00:34:53.869Z,91.43
2023-05-08T00:35:05.961Z,91.14
2023-05-08T00:35:18.889Z,91.25
2023-05-08T00:35:30.832Z,91.33
2023-05-08T00:35:42.925Z,91.50
2023-05-08T00:36:05.228Z,91.58
2023-05-08T00:36:17.363Z,91.39
2023-05-08T00:36:29.367Z,91.40
2023-05-08T00:36:41.350Z,91.28
2023-05-08T00:36:53.458Z,91.23
2023-05-08T00:37:05.424Z,91.31
2023-05-08T00:37:17.506Z,91.08
2023-05-08T00:37:29.401Z,91.01
2023-05-08T00:37:42.019Z,90.99
2023-05-08T00:37:53.935Z,91.08
2023-05-08T00:38:05.842Z,91.07
2023-05-08T00:38:17.850Z,91.15
2023-05-08T00:38:36.276Z,91.13
2023-05-08T00:38:48.278Z,91.24
2023-05-08T00:39:00.198Z,91.36
2023-05-08T00:39:12.508Z,91.36
2023-05-08T00:39:24.602Z,91.19
2023-05-08T00:39:36.654Z,90.96
2023-05-08T00:39:48.533Z,90.96
2023-05-08T00:40:00.678Z,90.96
2023-05-08T00:40:12.911Z,90.72
2023-05-08T00:40:25.331Z,90.64
2023-05-08T00:40:37.327Z,90.69
2023-05-08T00:40:50.328Z,90.72
2023-05-08T00:41:03.032Z,90.85
2023-05-08T00:41:15.952Z,91.21
2023-05-08T00:41:27.845Z,91.42
2023-05-08T00:41:42.324Z,91.57
2023-05-08T00:41:54.312Z,91.61
2023-05-08T00:42:06.213Z,91.59
2023-05-08T00:42:18.160Z,91.36
2023-05-08T00:42:30.122Z,91.17
2023-05-08T00:42:42.144Z,91.36
2023-05-08T00:42:54.077Z,91.25
2023-05-08T00:43:05.989Z,91.31
2023-05-08T00:43:17.877Z,91.11
2023-05-08T00:43:29.926Z,91.01
2023-05-08T00:43:42.122Z,91.10
2023-05-08T00:43:54.082Z,91.02
2023-05-08T00:44:06.051Z,91.13
2023-05-08T00:44:18.022Z,90.98
2023-05-08T00:44:29.988Z,90.81
2023-05-08T00:44:41.928Z,90.91
2023-05-08T00:44:53.866Z,90.86
2023-05-08T00:45:06.454Z,91.00
2023-05-08T00:45:18.449Z,90.97
2023-05-08T00:45:36.793Z,91.12
2023-05-08T00:45:48.856Z,91.09
2023-05-08T00:46:01.781Z,91.21
2023-05-08T00:46:14.015Z,91.47
2023-05-08T00:46:26.215Z,91.41
2023-05-08T00:46:38.457Z,91.15
2023-05-08T00:46:51.865Z,91.34
2023-05-08T00:47:04.309Z,91.25
2023-05-08T00:47:16.628Z,91.35
2023-05-08T00:47:33.523Z,91.45
2023-05-08T00:47:45.595Z,91.52
2023-05-08T00:47:57.671Z,91.58
2023-05-08T00:48:09.714Z,91.43
2023-05-08T00:48:23.758Z,91.49
2023-05-08T00:48:37.978Z,91.61
2023-05-08T00:48:50.195Z,91.32
2023-05-08T00:49:04.225Z,91.38
2023-05-08T00:49:16.727Z,91.38
2023-05-08T00:49:28.804Z,91.63
2023-05-08T00:49:41.614Z,91.41
2023-05-08T00:49:53.672Z,91.46
2023-05-08T00:50:06.019Z,91.45
2023-05-08T00:50:18.802Z,91.67
2023-05-08T00:50:32.509Z,91.65
2023-05-08T00:50:45.111Z,91.75
2023-05-08T00:50:58.922Z,91.80
2023-05-08T00:51:11.333Z,91.99
2023-05-08T00:51:23.651Z,92.18
2023-05-08T00:51:35.728Z,92.85
2023-05-08T00:51:50.771Z,92.90
2023-05-08T00:52:04.416Z,92.72
2023-05-08T00:52:20.468Z,92.68
2023-05-08T00:52:33.757Z,92.93
2023-05-08T00:52:46.292Z,92.49
2023-05-08T00:53:00.349Z,92.65
2023-05-08T00:53:13.013Z,92.57
2023-05-08T00:53:27.442Z,92.39
2023-05-08T00:53:42.854Z,92.63
2023-05-08T00:53:55.486Z,92.54
2023-05-08T00:54:07.460Z,92.47
2023-05-08T00:54:20.474Z,92.73
2023-05-08T00:54:32.437Z,92.71
2023-05-08T00:54:45.177Z,92.68
2023-05-08T00:54:57.390Z,92.89
2023-05-08T00:55:09.532Z,92.69
2023-05-08T00:55:21.816Z,92.38
2023-05-08T00:55:33.837Z,93.02
2023-05-08T00:55:46.277Z,93.06
2023-05-08T00:55:59.109Z,93.26
2023-05-08T00:56:15.620Z,93.11
2023-05-08T00:56:29.065Z,92.99
2023-05-08T00:56:41.255Z,93.39
2023-05-08T00:56:53.380Z,92.92
2023-05-08T00:57:08.584Z,93.17
2023-05-08T00:57:22.433Z,92.93
2023-05-08T00:57:35.689Z,92.95
2023-05-08T00:57:48.406Z,93.05
2023-05-08T00:58:00.577Z,93.24
2023-05-08T00:58:14.119Z,93.27
2023-05-08T00:58:27.413Z,92.92
2023-05-08T00:58:40.951Z,93.20
2023-05-08T00:58:53.920Z,93.37
2023-05-08T00:59:09.787Z,93.40
2023-05-08T00:59:24.845Z,93.14
2023-05-08T00:59:37.410Z,93.25
2023-05-08T00:59:51.897Z,92.98
2023-05-08T01:00:05.502Z,93.32
2023-05-08T01:00:19.050Z,93.07
2023-05-08T01:00:32.631Z,93.19
2023-05-08T01:00:45.354Z,93.53
2023-05-08T01:00:57.614Z,93.54
2023-05-08T01:01:10.815Z,93.52
2023-05-08T01:01:23.718Z,93.69
2023-05-08T01:01:39.472Z,93.85
2023-05-08T01:01:52.236Z,93.38
2023-05-08T01:02:05.305Z,93.12
2023-05-08T01:02:17.321Z,93.61
2023-05-08T01:02:33.343Z,93.69
2023-05-08T01:02:46.723Z,93.54
2023-05-08T01:03:00.947Z,93.12
2023-05-08T01:03:14.063Z,92.95
2023-05-08T01:03:26.284Z,93.00
2023-05-08T01:03:38.556Z,93.20
2023-05-08T01:03:50.931Z,93.26
2023-05-08T01:04:06.067Z,93.29
2023-05-08T01:04:21.372Z,93.31
2023-05-08T01:04:35.051Z,93.39
2023-05-08T01:04:48.475Z,93.44
2023-05-08T01:05:00.773Z,93.63
2023-05-08T01:05:13.040Z,93.60
2023-05-08T01:05:26.246Z,93.33
2023-05-08T01:05:38.468Z,93.23
2023-05-08T01:05:50.474Z,93.29
2023-05-08T01:06:03.813Z,93.76
2023-05-08T01:06:15.708Z,93.84
2023-05-08T01:06:27.609Z,93.91
2023-05-08T01:06:39.664Z,94.29
2023-05-08T01:06:51.874Z,94.15
2023-05-08T01:07:03.956Z,93.78
2023-05-08T01:07:17.543Z,93.98
2023-05-08T01:07:29.509Z,93.77
2023-05-08T01:07:41.540Z,93.77
2023-05-08T01:07:53.523Z,93.82
2023-05-08T01:08:05.638Z,93.98
2023-05-08T01:08:17.634Z,94.04
2023-05-08T01:08:31.152Z,94.03
2023-05-08T01:08:46.174Z,94.07
2023-05-08T01:08:58.363Z,94.31
2023-05-08T01:09:11.335Z,94.39
2023-05-08T01:09:23.286Z,94.28
2023-05-08T01:09:35.512Z,94.09
2023-05-08T01:09:47.511Z,93.92
2023-05-08T01:09:59.471Z,93.89
2023-05-08T01:10:11.631Z,93.91
2023-05-08T01:10:24.349Z,93.87
2023-05-08T01:10:47.065Z,94.02
2023-05-08T01:11:28.422Z,94.25
2023-05-08T01:11:49.931Z,94.31
2023-05-08T01:12:07.946Z,94.37
2023-05-08T01:12:34.656Z,94.50
2023-05-08T01:13:07.743Z,94.36
2023-05-08T01:13:37.878Z,94.28
2023-05-08T01:14:11.087Z,94.55
2023-05-08T01:14:32.205Z,94.40
2023-05-08T01:15:26.184Z,94.37
2023-05-08T01:15:43.627Z,94.27
2023-05-08T01:16:13.018Z,94.11
2023-05-08T01:16:30.954Z,94.14
2023-05-08T01:16:51.909Z,94.10
2023-05-08T01:17:06.827Z,94.17
2023-05-08T01:17:45.077Z,94.33
2023-05-08T01:18:17.404Z,94.10
2023-05-08T01:18:36.391Z,94.07
2023-05-08T01:19:14.395Z,94.04
2023-05-08T01:19:34.942Z,93.78
2023-05-08T01:20:15.251Z,93.85
2023-05-08T01:20:35.638Z,93.76
2023-05-08T01:21:16.964Z,94.02
2023-05-08T01:21:45.883Z,93.90
2023-05-08T01:22:53.814Z,94.23
2023-05-08T01:23:24.126Z,94.48
2023-05-08T01:23:53.011Z,94.34
2023-05-08T01:24:25.005Z,94.72
2023-05-08T01:24:39.594Z,94.47
2023-05-08T01:25:22.096Z,94.13
2023-05-08T01:26:13.121Z,93.99
2023-05-08T01:26:33.884Z,94.09
2023-05-08T01:27:30.527Z,94.44
2023-05-08T01:27:42.391Z,94.25
2023-05-08T01:28:28.630Z,94.49
2023-05-08T01:28:54.043Z,94.53
2023-05-08T01:29:28.169Z,94.19
2023-05-08T01:29:55.421Z,94.39
2023-05-08T01:30:13.602Z,94.38
2023-05-08T01:30:46.465Z,94.15
2023-05-08T01:31:26.060Z,94.79
2023-05-08T01:31:59.634Z,94.64
2023-05-08T01:32:19.485Z,94.81
2023-05-08T01:32:56.805Z,94.59
2023-05-08T01:33:17.411Z,94.76
2023-05-08T01:33:46.286Z,94.63
2023-05-08T01:34:12.029Z,95.08
2023-05-08T01:34:31.191Z,94.46
2023-05-08T01:35:00.618Z,94.84
2023-05-08T01:35:50.596Z,95.05
2023-05-08T01:36:20.636Z,95.01
2023-05-08T01:36:51.699Z,95.08
2023-05-08T01:37:16.757Z,94.86
2023-05-08T01:37:50.049Z,94.44
2023-05-08T01:38:14.850Z,94.44
2023-05-08T01:38:55.896Z,94.05
2023-05-08T01:39:19.167Z,94.02
2023-05-08T01:39:55.866Z,93.80
2023-05-08T01:40:20.760Z,93.79
2023-05-08T01:40:40.780Z,93.82
2023-05-08T01:40:54.410Z,93.92
2023-05-08T01:41:14.249Z,94.07
2023-05-08T01:41:31.026Z,94.03
2023-05-08T01:41:50.497Z,93.97
2023-05-08T01:42:13.743Z,94.56
2023-05-08T01:42:36.396Z,94.37
2023-05-08T01:42:53.623Z,94.38
2023-05-08T01:43:33.270Z,94.32
2023-05-08T01:44:03.188Z,94.31
2023-05-08T01:44:21.491Z,94.56
2023-05-08T01:44:45.579Z,94.19
2023-05-08T01:45:04.323Z,94.33
2023-05-08T01:45:24.625Z,94.33
2023-05-08T01:45:40.385Z,94.08
2023-05-08T01:45:55.071Z,94.26
2023-05-08T01:46:14.694Z,94.44
2023-05-08T01:46:28.370Z,94.29
2023-05-08T01:46:44.139Z,94.20
2023-05-08T01:46:57.065Z,94.15
2023-05-08T01:47:11.726Z,94.63
2023-05-08T01:47:30.226Z,94.48
2023-05-08T01:47:44.978Z,94.65
2023-05-08T01:48:10.850Z,94.43
2023-05-08T01:48:30.875Z,94.33
2023-05-08T01:48:49.508Z,94.26
2023-05-08T01:49:05.711Z,94.34
2023-05-08T01:49:27.377Z,94.29
2023-05-08T01:49:47.940Z,94.30
2023-05-08T01:50:19.894Z,94.02
2023-05-08T01:50:36.397Z,94.03
2023-05-08T01:50:58.355Z,94.44
2023-05-08T01:51:19.451Z,94.35
2023-05-08T01:51:39.025Z,94.26
2023-05-08T01:52:10.557Z,94.17
2023-05-08T01:52:45.438Z,94.02
2023-05-08T01:53:03.302Z,93.95
2023-05-08T01:53:34.792Z,94.17
2023-05-08T01:53:58.749Z,94.34
2023-05-08T01:54:14.951Z,94.62
2023-05-08T01:54:30.240Z,94.33
2023-05-08T01:54:55.683Z,94.19
2023-05-08T01:55:16.120Z,94.37
2023-05-08T01:55:34.297Z,94.15
2023-05-08T01:55:48.690Z,94.13
2023-05-08T01:56:08.086Z,94.34
2023-05-08T01:56:23.406Z,94.06
2023-05-08T01:56:36.561Z,93.84
2023-05-08T01:56:51.846Z,93.69
2023-05-08T01:57:04.951Z,94.03
2023-05-08T01:57:20.032Z,94.04
2023-05-08T01:57:34.963Z,94.56
2023-05-08T01:57:49.039Z,94.46
2023-05-08T01:58:04.180Z,94.37
2023-05-08T01:58:16.662Z,94.20
2023-05-08T01:58:33.025Z,94.35
2023-05-08T01:58:46.704Z,94.37
2023-05-08T01:59:04.277Z,94.34
2023-05-08T01:59:21.904Z,94.61
2023-05-08T01:59:37.412Z,94.20
2023-05-08T01:59:50.897Z,94.12
2023-05-08T02:00:05.694Z,94.44
2023-05-08T02:00:21.116Z,94.21
2023-05-08T02:00:33.220Z,94.35
2023-05-08T02:00:46.757Z,94.46
2023-05-08T02:01:02.096Z,93.98
2023-05-08T02:01:18.617Z,93.98
2023-05-08T02:01:36.992Z,94.17
2023-05-08T02:01:53.651Z,94.25
2023-05-08T02:02:06.830Z,94.47
2023-05-08T02:02:19.162Z,94.51
2023-05-08T02:02:33.187Z,94.21
2023-05-08T02:02:47.447Z,94.52
2023-05-08T02:03:00.834Z,94.66
2023-05-08T02:03:16.480Z,94.45
2023-05-08T02:03:31.357Z,94.48
2023-05-08T02:03:46.122Z,94.52
2023-05-08T02:04:02.553Z,93.80
2023-05-08T02:04:17.254Z,94.19
2023-05-08T02:04:30.523Z,94.13
2023-05-08T02:04:44.685Z,93.91
2023-05-08T02:04:57.524Z,93.91
2023-05-08T02:05:10.935Z,93.71
2023-05-08T02:05:24.371Z,93.59
2023-05-08T02:05:40.549Z,94.00
2023-05-08T02:05:57.666Z,93.93
2023-05-08T02:06:12.469Z,94.11
2023-05-08T02:06:27.004Z,94.11
2023-05-08T02:06:39.483Z,94.30
2023-05-08T02:06:52.655Z,94.58
2023-05-08T02:07:05.203Z,94.40
2023-05-08T02:07:17.753Z,94.66
2023-05-08T02:07:29.680Z,94.60
2023-05-08T02:07:43.817Z,94.39
2023-05-08T02:07:57.238Z,94.40
2023-05-08T02:08:12.797Z,94.93
2023-05-08T02:08:26.276Z,94.96
2023-05-08T02:08:38.584Z,95.18
2023-05-08T02:08:52.125Z,94.95
2023-05-08T02:09:07.176Z,94.96
2023-05-08T02:09:22.663Z,95.03
2023-05-08T02:09:35.244Z,95.29
2023-05-08T02:09:48.348Z,94.85
2023-05-08T02:10:03.545Z,94.57
2023-05-08T02:10:17.623Z,94.79
2023-05-08T02:10:30.756Z,94.66
2023-05-08T02:10:43.581Z,94.74
2023-05-08T02:10:57.726Z,94.66
2023-05-08T02:11:17.333Z,94.57
2023-05-08T02:11:32.295Z,94.90
2023-05-08T02:11:45.942Z,94.96
2023-05-08T02:12:00.788Z,95.17
2023-05-08T02:12:14.380Z,95.18
2023-05-08T02:12:27.644Z,94.81
2023-05-08T02:12:41.207Z,94.77
2023-05-08T02:12:55.036Z,94.57
2023-05-08T02:13:10.073Z,94.87
2023-05-08T02:13:23.698Z,94.76
2023-05-08T02:13:37.083Z,94.79
2023-05-08T02:13:50.773Z,94.65
2023-05-08T02:14:04.921Z,94.80
2023-05-08T02:14:19.781Z,94.34
2023-05-08T02:14:32.909Z,94.83
2023-05-08T02:14:47.909Z,95.30
2023-05-08T02:15:03.145Z,95.16
2023-05-08T02:15:19.882Z,95.17
2023-05-08T02:15:35.935Z,95.18
2023-05-08T02:15:50.013Z,95.30
2023-05-08T02:16:03.104Z,95.02
2023-05-08T02:16:16.147Z,95.00
2023-05-08T02:16:29.863Z,95.11
2023-05-08T02:16:44.264Z,95.18
2023-05-08T02:16:58.615Z,95.03
2023-05-08T02:17:12.470Z,95.02
2023-05-08T02:17:25.294Z,94.94
2023-05-08T02:17:39.714Z,94.89
2023-05-08T02:17:55.399Z,95.00
2023-05-08T02:18:08.589Z,94.89
2023-05-08T02:18:22.754Z,95.03
2023-05-08T02:18:37.939Z,95.32
2023-05-08T02:18:52.958Z,95.21
2023-05-08T02:19:06.629Z,95.30
2023-05-08T02:19:21.868Z,95.15
2023-05-08T02:19:34.914Z,95.37
2023-05-08T02:19:47.919Z,95.36
2023-05-08T02:20:03.433Z,95.29
2023-05-08T02:20:16.235Z,95.21
2023-05-08T02:20:29.567Z,95.44
2023-05-08T02:20:42.086Z,95.45
2023-05-08T02:20:56.684Z,95.34
2023-05-08T02:21:11.269Z,95.31
2023-05-08T02:21:23.905Z,95.34
2023-05-08T02:21:37.205Z,94.91
2023-05-08T02:21:50.939Z,95.04
2023-05-08T02:22:04.044Z,94.98
2023-05-08T02:22:18.142Z,94.73
2023-05-08T02:22:31.184Z,94.81
2023-05-08T02:22:45.013Z,94.75
2023-05-08T02:22:57.657Z,94.71
2023-05-08T02:23:10.808Z,94.80
2023-05-08T02:23:26.398Z,94.47
2023-05-08T02:23:38.362Z,94.49
2023-05-08T02:23:52.578Z,94.64
2023-05-08T02:24:06.984Z,94.78
2023-05-08T02:24:20.296Z,94.72
2023-05-08T02:24:33.654Z,94.62
2023-05-08T02:24:46.501Z,94.83
2023-05-08T02:24:58.737Z,94.97
2023-05-08T02:25:14.526Z,94.89
2023-05-08T02:25:26.989Z,95.23
2023-05-08T02:25:42.081Z,95.21
2023-05-08T02:25:56.496Z,95.36
2023-05-08T02:26:10.101Z,95.01
2023-05-08T02:26:24.348Z,94.80
2023-05-08T02:26:39.417Z,94.98
2023-05-08T02:26:53.087Z,94.79
2023-05-08T02:27:07.039Z,94.89
2023-05-08T02:27:22.717Z,94.80
2023-05-08T02:27:35.782Z,94.83
2023-05-08T02:27:49.461Z,94.86
2023-05-08T02:28:01.857Z,94.67
2023-05-08T02:28:16.437Z,94.70
2023-05-08T02:28:30.225Z,94.50
2023-05-08T02:28:42.506Z,94.52
2023-05-08T02:28:56.952Z,94.45
2023-05-08T02:29:09.516Z,94.18
2023-05-08T02:29:22.697Z,94.36
2023-05-08T02:29:36.252Z,94.24
2023-05-08T02:29:51.434Z,94.21
2023-05-08T02:30:03.636Z,94.25
2023-05-08T02:30:18.792Z,94.19
2023-05-08T02:30:31.323Z,94.24
2023-05-08T02:30:44.745Z,94.10
2023-05-08T02:30:57.770Z,94.05
2023-05-08T02:31:44.155Z,93.76
2023-05-08T02:31:58.188Z,93.83
2023-05-08T02:32:10.590Z,93.92
2023-05-08T02:32:25.611Z,93.97
2023-05-08T02:32:39.404Z,94.21
2023-05-08T02:32:53.943Z,94.17
2023-05-08T02:33:10.412Z,94.10
2023-05-08T02:33:23.171Z,94.28
2023-05-08T02:33:37.120Z,94.53
2023-05-08T02:33:50.245Z,94.25
2023-05-08T02:34:04.807Z,94.26
2023-05-08T02:34:17.935Z,94.17
2023-05-08T02:34:31.664Z,93.95
2023-05-08T02:34:54.828Z,93.77
2023-05-08T02:35:20.497Z,94.06
2023-05-08T02:35:32.875Z,94.11
2023-05-08T02:35:46.842Z,94.25
2023-05-08T02:36:01.402Z,94.03
2023-05-08T02:36:17.745Z,94.38
2023-05-08T02:36:31.156Z,94.37
2023-05-08T02:36:43.529Z,94.55
2023-05-08T02:36:55.856Z,94.32
2023-05-08T02:37:08.906Z,94.15
2023-05-08T02:37:22.819Z,94.10
2023-05-08T02:37:35.411Z,94.36
2023-05-08T02:37:52.370Z,94.13
2023-05-08T02:38:10.828Z,94.52
2023-05-08T02:38:25.149Z,94.52
2023-05-08T02:38:39.751Z,94.41
2023-05-08T02:38:55.993Z,94.39
2023-05-08T02:39:11.155Z,94.38
2023-05-08T02:39:27.355Z,94.48
2023-05-08T02:39:41.674Z,94.51
2023-05-08T02:39:56.684Z,94.28
2023-05-08T02:40:10.792Z,94.55
2023-05-08T02:40:26.263Z,94.15
2023-05-08T02:40:41.649Z,94.07
2023-05-08T02:41:00.952Z,94.27
2023-05-08T02:41:14.431Z,94.18
2023-05-08T02:41:30.739Z,94.14
2023-05-08T02:41:43.026Z,93.78
2023-05-08T02:41:54.955Z,93.63
2023-05-08T02:42:07.038Z,93.83
2023-05-08T02:42:19.059Z,94.00
2023-05-08T02:42:31.557Z,94.10
2023-05-08T02:42:44.358Z,93.94
2023-05-08T02:42:56.880Z,93.80
2023-05-08T02:43:08.903Z,94.00
2023-05-08T02:43:21.232Z,93.91
2023-05-08T02:43:33.459Z,93.92
2023-05-08T02:43:45.986Z,93.97
2023-05-08T02:43:58.865Z,93.87
2023-05-08T02:44:12.357Z,93.92
2023-05-08T02:44:24.411Z,93.71
2023-05-08T02:44:36.526Z,93.78
2023-05-08T02:44:48.516Z,93.82
2023-05-08T02:45:00.786Z,93.57
2023-05-08T02:45:13.459Z,93.48
2023-05-08T02:45:32.692Z,93.50
2023-05-08T02:45:48.956Z,93.51
2023-05-08T02:46:03.480Z,93.33
2023-05-08T02:46:39.491Z,93.44
2023-05-08T02:47:08.127Z,93.45
2023-05-08T02:47:27.888Z,93.42
2023-05-08T02:47:51.940Z,93.47
2023-05-08T02:48:20.002Z,93.43
2023-05-08T02:48:41.940Z,93.43
2023-05-08T02:48:57.316Z,93.49
2023-05-08T02:49:24.176Z,93.88
2023-05-08T02:49:53.191Z,93.95
2023-05-08T02:50:43.276Z,94.05
2023-05-08T02:51:05.048Z,93.92
2023-05-08T02:51:28.057Z,93.98
2023-05-08T02:51:50.898Z,93.86
2023-05-08T02:52:13.637Z,94.11
2023-05-08T02:52:38.172Z,93.94
2023-05-08T02:52:54.040Z,94.10
2023-05-08T02:53:11.371Z,93.97
2023-05-08T02:53:31.744Z,94.05
2023-05-08T02:53:50.586Z,94.01
2023-05-08T02:54:11.021Z,93.85
2023-05-08T02:54:53.406Z,93.76
2023-05-08T02:55:23.255Z,93.80
2023-05-08T02:55:48.311Z,93.83
2023-05-08T02:56:11.337Z,93.69
2023-05-08T02:56:36.165Z,93.78
2023-05-08T02:56:58.169Z,93.84
2023-05-08T02:57:39.741Z,93.80
2023-05-08T02:58:04.739Z,93.96
2023-05-08T02:58:29.485Z,93.96
2023-05-08T02:58:59.808Z,94.21
2023-05-08T02:59:22.153Z,94.15
2023-05-08T02:59:55.699Z,93.79
2023-05-08T03:00:08.299Z,93.93
2023-05-08T03:00:28.812Z,93.90
2023-05-08T03:01:07.749Z,93.37
2023-05-08T03:01:27.380Z,93.54
2023-05-08T03:01:48.389Z,93.45
2023-05-08T03:02:10.726Z,93.47
2023-05-08T03:02:32.201Z,93.56
2023-05-08T03:02:50.922Z,93.27
2023-05-08T03:03:25.721Z,93.20
2023-05-08T03:03:49.714Z,93.29
2023-05-08T03:04:07.585Z,93.42
2023-05-08T03:04:39.968Z,93.31
2023-05-08T03:04:56.296Z,93.21
2023-05-08T03:05:21.686Z,93.70
2023-05-08T03:05:37.041Z,93.64
2023-05-08T03:05:54.895Z,93.73
2023-05-08T03:06:14.155Z,93.85
2023-05-08T03:06:27.350Z,93.36
2023-05-08T03:06:42.927Z,93.23
2023-05-08T03:06:57.947Z,93.07
2023-05-08T03:07:11.180Z,92.77
2023-05-08T03:07:25.975Z,92.86
2023-05-08T03:07:41.876Z,92.84
2023-05-08T03:07:57.344Z,92.93
2023-05-08T03:08:18.436Z,92.80
2023-05-08T03:08:34.120Z,93.29
2023-05-08T03:08:51.805Z,93.61
2023-05-08T03:09:06.860Z,93.58
2023-05-08T03:09:21.494Z,93.63
2023-05-08T03:09:43.005Z,93.21
2023-05-08T03:10:05.034Z,93.55
2023-05-08T03:10:22.081Z,93.22
2023-05-08T03:10:36.613Z,93.48
2023-05-08T03:10:52.470Z,93.39
2023-05-08T03:11:10.704Z,93.50
2023-05-08T03:11:27.632Z,93.58
2023-05-08T03:11:44.835Z,93.61
2023-05-08T03:12:04.678Z,93.48
2023-05-08T03:12:21.012Z,93.53
2023-05-08T03:12:38.982Z,93.53
2023-05-08T03:12:55.563Z,93.59
2023-05-08T03:13:10.529Z,93.64
2023-05-08T03:13:23.301Z,93.46
2023-05-08T03:13:38.689Z,93.53
2023-05-08T03:13:53.572Z,93.60
2023-05-08T03:14:10.084Z,93.44
2023-05-08T03:14:26.939Z,93.26
2023-05-08T03:14:45.252Z,93.16
2023-05-08T03:15:06.445Z,93.34
2023-05-08T03:15:23.861Z,93.47
2023-05-08T03:15:41.875Z,93.33
2023-05-08T03:15:57.465Z,93.26
2023-05-08T03:16:18.384Z,93.33
2023-05-08T03:16:33.413Z,93.36
2023-05-08T03:16:47.603Z,93.51
2023-05-08T03:17:03.013Z,93.42
2023-05-08T03:17:17.675Z,93.34
2023-05-08T03:17:33.254Z,93.04
2023-05-08T03:17:48.581Z,92.83
2023-05-08T03:18:08.863Z,93.04
2023-05-08T03:18:25.942Z,92.96
2023-05-08T03:19:15.006Z,92.86
2023-05-08T03:19:32.040Z,92.89
2023-05-08T03:19:48.517Z,93.21
2023-05-08T03:20:05.936Z,93.07
2023-05-08T03:20:19.848Z,92.95
2023-05-08T03:20:37.657Z,93.01
2023-05-08T03:20:54.447Z,92.93
2023-05-08T03:21:08.127Z,93.15
2023-05-08T03:21:22.679Z,93.18
2023-05-08T03:21:37.480Z,92.84
2023-05-08T03:21:52.837Z,93.08
2023-05-08T03:22:07.456Z,92.75
2023-05-08T03:22:21.158Z,92.74
2023-05-08T03:22:35.789Z,92.49
2023-05-08T03:22:49.350Z,92.60
2023-05-08T03:23:04.540Z,92.91
2023-05-08T03:23:20.117Z,92.97
2023-05-08T03:23:36.290Z,92.63
2023-05-08T03:23:51.324Z,92.52
2023-05-08T03:24:05.191Z,92.36
2023-05-08T03:24:20.210Z,92.25
2023-05-08T03:24:36.458Z,92.36
2023-05-08T03:24:49.795Z,92.18
2023-05-08T03:25:04.931Z,92.13
2023-05-08T03:25:19.496Z,92.14
2023-05-08T03:25:34.060Z,92.39
2023-05-08T03:25:46.758Z,92.32
2023-05-08T03:26:03.025Z,92.43
2023-05-08T03:26:19.724Z,92.53
2023-05-08T03:26:31.891Z,92.64
2023-05-08T03:26:44.478Z,92.74